createdAt,value
2022-11-10T00:01:11.375Z,7.00
2022-11-10T00:03:40.839Z,7.00
2022-11-10T00:06:10.090Z,6.90
2022-11-10T00:08:37.433Z,6.90
2022-11-10T00:11:08.556Z,6.80
2022-11-10T00:13:57.656Z,6.80
2022-11-10T00:16:43.230Z,6.80
2022-11-10T00:19:11.197Z,6.80
2022-11-10T00:21:38.537Z,6.80
2022-11-10T00:24:06.013Z,6.80
2022-11-10T00:26:33.612Z,6.80
2022-11-10T00:29:00.871Z,6.90
2022-11-10T00:31:31.051Z,6.90
2022-11-10T00:33:58.724Z,6.90
2022-11-10T00:36:26.214Z,7.00
2022-11-10T00:38:53.930Z,7.00
2022-11-10T00:41:22.004Z,7.10
2022-11-10T00:43:49.632Z,7.00
2022-11-10T00:46:17.434Z,7.00
2022-11-10T00:48:44.903Z,7.10
2022-11-10T00:51:27.860Z,7.10
2022-11-10T00:53:56.318Z,7.20
2022-11-10T00:56:24.996Z,7.20
2022-11-10T00:58:53.523Z,7.30
2022-11-10T01:01:24.849Z,7.30
2022-11-10T01:03:53.187Z,7.30
2022-11-10T01:06:21.344Z,7.30
2022-11-10T01:08:49.226Z,7.30
2022-11-10T01:11:19.584Z,7.30
2022-11-10T01:13:47.418Z,7.30
2022-11-10T01:16:18.281Z,7.40
2022-11-10T01:18:54.204Z,7.50
2022-11-10T01:21:22.501Z,7.40
2022-11-10T01:23:50.088Z,7.40
2022-11-10T01:26:18.386Z,7.40
2022-11-10T01:28:45.867Z,7.40
2022-11-10T01:31:20.111Z,7.40
2022-11-10T01:33:47.412Z,7.40
2022-11-10T01:36:15.309Z,7.40
2022-11-10T01:38:43.975Z,7.40
2022-11-10T01:41:13.301Z,7.40
2022-11-10T01:43:41.052Z,7.40
2022-11-10T01:46:13.710Z,7.40
2022-11-10T01:49:04.419Z,7.40
2022-11-10T01:51:49.709Z,7.40
2022-11-10T01:54:22.744Z,7.40
2022-11-10T01:56:53.528Z,7.40
2022-11-10T01:59:28.100Z,7.50
2022-11-10T02:01:59.086Z,7.50
2022-11-10T02:04:27.551Z,7.50
2022-11-10T02:06:56.339Z,7.50
2022-11-10T02:09:23.715Z,7.50
2022-11-10T02:11:56.584Z,7.60
2022-11-10T02:14:24.172Z,7.60
2022-11-10T02:16:51.508Z,7.60
2022-11-10T02:19:24.985Z,7.60
2022-11-10T02:21:53.110Z,7.60
2022-11-10T02:24:20.791Z,7.60
2022-11-10T02:26:54.458Z,7.60
2022-11-10T02:29:22.765Z,7.60
2022-11-10T02:31:51.523Z,7.60
2022-11-10T02:34:18.857Z,7.60
2022-11-10T02:36:46.316Z,7.60
2022-11-10T02:39:13.691Z,7.70
2022-11-10T02:41:41.752Z,7.70
2022-11-10T02:44:09.467Z,7.70
2022-11-10T02:46:37.796Z,7.70
2022-11-10T02:49:05.260Z,7.70
2022-11-10T02:51:33.894Z,7.70
2022-11-10T02:54:01.627Z,7.70
2022-11-10T02:56:29.164Z,7.70
2022-11-10T02:58:56.715Z,7.80
2022-11-10T03:01:24.009Z,7.80
2022-11-10T03:03:52.183Z,7.80
2022-11-10T03:06:20.622Z,7.80
2022-11-10T03:08:47.899Z,7.80
2022-11-10T03:11:15.278Z,7.80
2022-11-10T03:14:00.512Z,7.80
2022-11-10T03:16:28.802Z,7.80
2022-11-10T03:18:56.382Z,7.80
2022-11-10T03:21:23.753Z,7.90
2022-11-10T03:23:51.080Z,7.90
2022-11-10T03:26:18.944Z,7.90
2022-11-10T03:28:46.160Z,8.00
2022-11-10T03:31:13.600Z,8.00
2022-11-10T03:33:41.472Z,8.10
2022-11-10T03:36:08.984Z,8.20
2022-11-10T03:38:36.270Z,8.20
2022-11-10T03:41:18.920Z,8.50
2022-11-10T03:43:47.906Z,8.80
2022-11-10T03:46:15.612Z,9.20
2022-11-10T03:48:44.564Z,9.50
2022-11-10T03:51:14.905Z,9.60
2022-11-10T03:53:42.299Z,9.70
2022-11-10T03:56:09.891Z,9.70
2022-11-10T03:58:37.223Z,9.80
2022-11-10T04:01:04.660Z,9.70
2022-11-10T04:03:32.045Z,9.80
2022-11-10T04:06:17.619Z,9.70
2022-11-10T04:09:00.128Z,9.80
2022-11-10T04:11:47.574Z,9.80
2022-11-10T04:14:34.293Z,9.80
2022-11-10T04:17:02.796Z,9.80
2022-11-10T04:19:30.354Z,9.70
2022-11-10T04:21:58.057Z,9.80
2022-11-10T04:24:25.558Z,9.80
2022-11-10T04:26:52.943Z,9.80
2022-11-10T04:29:21.409Z,9.80
2022-11-10T04:31:48.816Z,9.80
2022-11-10T04:34:16.499Z,9.80
2022-11-10T04:36:45.133Z,9.80
2022-11-10T04:39:13.314Z,9.70
2022-11-10T04:41:40.718Z,9.70
2022-11-10T04:44:08.199Z,9.70
2022-11-10T04:46:39.889Z,9.70
2022-11-10T04:49:08.641Z,9.70
2022-11-10T04:51:38.379Z,9.60
2022-11-10T04:54:07.561Z,9.60
2022-11-10T04:56:35.210Z,9.60
2022-11-10T04:59:02.592Z,9.60
2022-11-10T05:01:29.951Z,9.60
2022-11-10T05:03:57.735Z,9.60
2022-11-10T05:06:25.256Z,9.50
2022-11-10T05:08:52.940Z,9.50
2022-11-10T05:11:20.480Z,9.50
2022-11-10T05:13:48.641Z,9.50
2022-11-10T05:16:17.009Z,9.60
2022-11-10T05:18:44.393Z,9.60
2022-11-10T05:21:11.954Z,9.60
2022-11-10T05:23:39.514Z,9.60
2022-11-10T05:26:12.226Z,9.60
2022-11-10T05:28:40.846Z,9.60
2022-11-10T05:31:09.037Z,9.60
2022-11-10T05:33:38.075Z,9.60
2022-11-10T05:36:07.317Z,9.60
2022-11-10T05:38:40.221Z,9.60
2022-11-10T05:41:09.407Z,9.60
2022-11-10T05:43:36.836Z,9.70
2022-11-10T05:46:04.272Z,9.70
2022-11-10T05:48:31.894Z,9.70
2022-11-10T05:50:59.363Z,9.70
2022-11-10T05:53:27.117Z,9.60
2022-11-10T05:55:54.377Z,9.60
2022-11-10T05:58:22.426Z,9.60
2022-11-10T06:00:49.771Z,9.50
2022-11-10T06:03:19.313Z,9.50
2022-11-10T06:05:46.938Z,9.40
2022-11-10T06:08:14.335Z,9.40
2022-11-10T06:10:41.991Z,9.40
2022-11-10T06:13:09.870Z,9.40
2022-11-10T06:15:37.211Z,9.40
2022-11-10T06:18:04.674Z,9.40
2022-11-10T06:20:32.421Z,9.30
2022-11-10T06:23:09.679Z,9.30
2022-11-10T06:25:38.532Z,9.30
2022-11-10T06:28:08.890Z,9.30
2022-11-10T06:30:38.046Z,9.30
2022-11-10T06:33:05.432Z,9.30
2022-11-10T06:35:33.141Z,9.40
2022-11-10T06:38:05.552Z,9.50
2022-11-10T06:40:33.332Z,9.60
2022-11-10T06:43:01.795Z,9.60
2022-11-10T06:45:29.552Z,9.70
2022-11-10T06:48:05.160Z,9.70
2022-11-10T06:50:32.897Z,9.80
2022-11-10T06:53:01.087Z,9.90
2022-11-10T06:55:29.058Z,9.90
2022-11-10T06:57:56.628Z,10.00
2022-11-10T07:00:25.110Z,10.00
2022-11-10T07:03:12.593Z,10.00
2022-11-10T07:05:40.550Z,10.10
2022-11-10T07:08:17.370Z,10.10
2022-11-10T07:10:55.296Z,10.20
2022-11-10T07:13:23.314Z,10.20
2022-11-10T07:15:51.516Z,10.20
2022-11-10T07:18:19.045Z,10.20
2022-11-10T07:20:46.582Z,10.20
2022-11-10T07:23:13.904Z,10.30
2022-11-10T07:25:41.118Z,10.30
2022-11-10T07:28:10.863Z,10.30
2022-11-10T07:30:38.638Z,10.30
2022-11-10T07:33:12.660Z,10.40
2022-11-10T07:35:40.288Z,10.40
2022-11-10T07:38:13.544Z,10.50
2022-11-10T07:40:41.290Z,10.60
2022-11-10T07:43:08.521Z,10.60
2022-11-10T07:45:35.966Z,10.70
2022-11-10T07:48:05.461Z,10.60
2022-11-10T07:50:36.836Z,10.70
2022-11-10T07:53:08.385Z,10.70
2022-11-10T07:55:38.004Z,10.70
2022-11-10T07:58:06.274Z,10.70
2022-11-10T08:00:34.215Z,10.80
2022-11-10T08:03:03.527Z,10.80
2022-11-10T08:05:31.501Z,10.90
2022-11-10T08:08:00.340Z,11.00
2022-11-10T08:10:29.107Z,11.00
2022-11-10T08:12:58.152Z,11.10
2022-11-10T08:15:26.510Z,11.10
2022-11-10T08:18:00.825Z,11.20
2022-11-10T08:20:29.291Z,11.20
2022-11-10T08:23:01.324Z,11.20
2022-11-10T08:25:35.529Z,11.30
2022-11-10T08:28:05.139Z,11.30
2022-11-10T08:30:33.140Z,11.30
2022-11-10T08:33:02.263Z,11.30
2022-11-10T08:35:31.567Z,11.40
2022-11-10T08:37:58.981Z,11.40
2022-11-10T08:40:29.505Z,11.40
2022-11-10T08:43:01.339Z,11.40
2022-11-10T08:45:30.454Z,11.40
2022-11-10T08:48:03.114Z,11.50
2022-11-10T08:50:30.959Z,11.60
2022-11-10T08:53:01.327Z,11.70
2022-11-10T08:55:29.033Z,11.80
2022-11-10T08:58:01.107Z,11.90
2022-11-10T09:00:29.650Z,11.90
2022-11-10T09:03:03.615Z,11.90
2022-11-10T09:05:30.975Z,12.00
2022-11-10T09:07:58.703Z,12.20
2022-11-10T09:10:26.036Z,12.30
2022-11-10T09:12:53.332Z,12.40
2022-11-10T09:15:20.713Z,12.50
2022-11-10T09:17:48.268Z,12.50
2022-11-10T09:20:16.043Z,12.50
2022-11-10T09:22:43.376Z,12.60
2022-11-10T09:25:11.001Z,12.70
2022-11-10T09:27:39.009Z,12.80
2022-11-10T09:30:10.544Z,12.90
2022-11-10T09:32:40.483Z,12.80
2022-11-10T09:35:08.133Z,12.90
2022-11-10T09:37:40.495Z,12.90
2022-11-10T09:40:13.133Z,12.80
2022-11-10T09:42:42.168Z,12.70
2022-11-10T09:45:20.725Z,12.60
2022-11-10T09:48:06.803Z,12.70
2022-11-10T09:50:58.660Z,13.00
2022-11-10T09:53:35.058Z,13.30
2022-11-10T09:56:05.503Z,13.90
2022-11-10T09:58:44.869Z,15.00
2022-11-10T10:01:32.452Z,16.00
2022-11-10T10:04:12.764Z,16.70
2022-11-10T10:07:10.803Z,17.40
2022-11-10T10:09:50.776Z,17.90
2022-11-10T10:12:45.865Z,18.50
2022-11-10T10:15:39.324Z,19.00
2022-11-10T10:18:26.964Z,19.20
2022-11-10T10:21:19.847Z,19.20
2022-11-10T10:24:11.418Z,18.50
2022-11-10T10:26:45.473Z,18.00
2022-11-10T10:29:39.939Z,17.20
2022-11-10T10:32:13.339Z,16.80
2022-11-10T10:34:42.153Z,16.20
2022-11-10T10:37:41.099Z,15.80
2022-11-10T10:40:16.597Z,15.70
2022-11-10T10:42:44.138Z,15.60
2022-11-10T10:45:26.187Z,15.40
2022-11-10T10:47:56.647Z,15.50
2022-11-10T10:50:32.572Z,15.60
2022-11-10T10:53:12.142Z,15.40
2022-11-10T10:55:45.245Z,15.40
2022-11-10T10:58:27.913Z,15.30
2022-11-10T11:01:01.886Z,15.30
2022-11-10T11:03:47.503Z,15.60
2022-11-10T11:06:17.553Z,15.80
2022-11-10T11:09:09.897Z,15.90
2022-11-10T11:11:39.181Z,16.00
2022-11-10T11:14:26.719Z,16.20
2022-11-10T11:17:00.582Z,16.40
2022-11-10T11:19:39.068Z,16.50
2022-11-10T11:22:33.015Z,16.60
2022-11-10T11:25:23.218Z,16.60
2022-11-10T11:27:57.083Z,16.60
2022-11-10T11:30:29.005Z,16.60
2022-11-10T11:33:13.124Z,16.30
2022-11-10T11:35:57.384Z,16.00
2022-11-10T11:38:53.912Z,15.70
2022-11-10T11:41:24.667Z,15.60
2022-11-10T11:44:10.751Z,15.70
2022-11-10T11:46:50.902Z,15.80
2022-11-10T11:49:48.874Z,15.90
2022-11-10T11:52:36.507Z,15.90
2022-11-10T11:55:04.679Z,15.70
2022-11-10T11:57:49.239Z,15.60
2022-11-10T12:00:19.134Z,15.50
2022-11-10T12:03:14.299Z,15.30
2022-11-10T12:06:15.008Z,15.10
2022-11-10T12:09:03.760Z,14.90
2022-11-10T12:11:55.685Z,14.80
2022-11-10T12:15:01.661Z,14.70
2022-11-10T12:17:47.647Z,14.50
2022-11-10T12:20:51.586Z,14.40
2022-11-10T12:23:46.755Z,14.30
2022-11-10T12:26:19.720Z,14.40
2022-11-10T12:28:53.621Z,14.40
2022-11-10T12:31:26.299Z,14.40
2022-11-10T12:34:15.363Z,14.30
2022-11-10T12:36:43.771Z,14.30
2022-11-10T12:39:40.160Z,14.20
2022-11-10T12:42:14.988Z,14.20
2022-11-10T12:44:52.806Z,14.30
2022-11-10T12:47:24.506Z,14.40
2022-11-10T12:50:02.668Z,14.60
2022-11-10T12:52:40.687Z,14.60
2022-11-10T12:55:13.404Z,14.60
2022-11-10T12:57:43.138Z,14.50
2022-11-10T13:00:30.417Z,14.30
2022-11-10T13:02:59.503Z,14.20
2022-11-10T13:05:38.099Z,14.00
2022-11-10T13:08:17.122Z,14.00
2022-11-10T13:10:56.708Z,13.90
2022-11-10T13:13:25.653Z,13.90
2022-11-10T13:15:59.091Z,13.80
2022-11-10T13:18:32.551Z,13.70
2022-11-10T13:21:00.632Z,13.60
2022-11-10T13:23:38.221Z,13.60
2022-11-10T13:26:26.904Z,13.50
2022-11-10T13:29:00.183Z,13.50
2022-11-10T13:31:27.463Z,13.60
2022-11-10T13:34:10.342Z,13.90
2022-11-10T13:36:42.908Z,13.90
2022-11-10T13:39:36.398Z,13.90
2022-11-10T13:42:09.620Z,13.90
2022-11-10T13:44:48.386Z,14.00
2022-11-10T13:47:40.160Z,14.00
2022-11-10T13:50:21.736Z,13.90
2022-11-10T13:53:04.123Z,13.80
2022-11-10T13:55:53.316Z,13.90
2022-11-10T13:58:30.250Z,13.80
2022-11-10T14:01:19.051Z,13.70
2022-11-10T14:03:46.413Z,13.60
2022-11-10T14:06:40.862Z,13.60
2022-11-10T14:09:29.342Z,13.50
2022-11-10T14:12:15.817Z,13.30
2022-11-10T14:14:58.381Z,13.20
2022-11-10T14:17:32.687Z,13.20
2022-11-10T14:20:04.913Z,13.20
2022-11-10T14:22:43.190Z,13.20
2022-11-10T14:25:36.962Z,13.10
2022-11-10T14:28:28.661Z,13.00
2022-11-10T14:30:56.939Z,12.90
2022-11-10T14:33:26.033Z,12.90
2022-11-10T14:35:59.800Z,12.80
2022-11-10T14:38:37.408Z,12.70
2022-11-10T14:41:06.868Z,12.70
2022-11-10T14:43:39.481Z,12.70
2022-11-10T14:46:08.034Z,12.70
2022-11-10T14:48:38.354Z,12.60
2022-11-10T14:51:11.979Z,12.70
2022-11-10T14:54:02.035Z,12.70
2022-11-10T14:56:32.255Z,12.70
2022-11-10T14:59:02.869Z,12.70
2022-11-10T15:01:35.569Z,12.60
2022-11-10T15:04:08.558Z,12.60
2022-11-10T15:06:36.445Z,12.50
2022-11-10T15:09:26.451Z,12.40
2022-11-10T15:12:22.966Z,12.20
2022-11-10T15:15:00.124Z,12.20
2022-11-10T15:17:47.463Z,12.10
2022-11-10T15:20:32.859Z,12.00
2022-11-10T15:23:03.583Z,11.90
2022-11-10T15:25:39.990Z,11.80
2022-11-10T15:28:13.287Z,11.70
2022-11-10T15:30:51.393Z,11.70
2022-11-10T15:33:31.716Z,11.60
2022-11-10T15:36:17.483Z,11.60
2022-11-10T15:38:45.221Z,11.50
2022-11-10T15:41:15.735Z,11.50
2022-11-10T15:43:43.590Z,11.40
2022-11-10T15:46:21.044Z,11.40
2022-11-10T15:48:50.801Z,11.30
2022-11-10T15:51:25.986Z,11.30
2022-11-10T15:53:54.571Z,11.20
2022-11-10T15:56:23.961Z,11.20
2022-11-10T15:58:57.882Z,11.20
2022-11-10T16:01:28.414Z,11.10
2022-11-10T16:03:55.829Z,11.00
2022-11-10T16:06:23.373Z,10.90
2022-11-10T16:08:51.035Z,10.90
2022-11-10T16:11:20.915Z,10.90
2022-11-10T16:13:50.476Z,10.90
2022-11-10T16:16:19.470Z,10.90
2022-11-10T16:18:47.226Z,10.90
2022-11-10T16:21:16.864Z,10.80
2022-11-10T16:23:44.304Z,10.70
2022-11-10T16:26:15.638Z,10.60
2022-11-10T16:28:44.840Z,10.50
2022-11-10T16:31:12.404Z,10.40
2022-11-10T16:33:41.699Z,10.30
2022-11-10T16:36:25.327Z,10.20
2022-11-10T16:38:53.733Z,10.20
2022-11-10T16:41:21.647Z,10.10
2022-11-10T16:43:49.030Z,10.00
2022-11-10T16:46:29.732Z,10.00
2022-11-10T16:49:00.359Z,9.90
2022-11-10T16:51:44.173Z,9.90
2022-11-10T16:54:16.075Z,9.90
2022-11-10T16:56:52.045Z,9.80
2022-11-10T16:59:21.554Z,9.80
2022-11-10T17:01:50.441Z,9.70
2022-11-10T17:04:19.525Z,9.70
2022-11-10T17:06:47.059Z,9.70
2022-11-10T17:09:19.485Z,9.70
2022-11-10T17:11:47.293Z,9.70
2022-11-10T17:14:15.278Z,9.60
2022-11-10T17:16:47.978Z,9.60
2022-11-10T17:19:27.391Z,9.60
2022-11-10T17:21:56.821Z,9.50
2022-11-10T17:24:25.309Z,9.60
2022-11-10T17:26:54.622Z,9.50
2022-11-10T17:29:22.272Z,9.50
2022-11-10T17:31:52.150Z,9.50
2022-11-10T17:34:19.485Z,9.50
2022-11-10T17:36:46.816Z,9.40
2022-11-10T17:39:18.693Z,9.40
2022-11-10T17:41:48.779Z,9.40
2022-11-10T17:44:17.025Z,9.40
2022-11-10T17:46:45.049Z,9.40
2022-11-10T17:49:12.737Z,9.30
2022-11-10T17:51:40.795Z,9.20
2022-11-10T17:54:14.053Z,9.20
2022-11-10T17:56:42.177Z,9.30
2022-11-10T17:59:09.494Z,9.20
2022-11-10T18:01:37.727Z,9.20
2022-11-10T18:04:05.453Z,9.20
2022-11-10T18:06:32.839Z,9.20
2022-11-10T18:09:00.160Z,9.10
2022-11-10T18:11:27.417Z,9.00
2022-11-10T18:13:54.767Z,9.00
2022-11-10T18:16:22.246Z,9.00
2022-11-10T18:18:49.669Z,8.90
2022-11-10T18:21:16.931Z,8.80
2022-11-10T18:23:44.966Z,8.80
2022-11-10T18:26:12.459Z,8.80
2022-11-10T18:28:40.323Z,8.70
2022-11-10T18:31:09.117Z,8.60
2022-11-10T18:33:37.348Z,8.60
2022-11-10T18:36:04.955Z,8.50
2022-11-10T18:38:32.724Z,8.60
2022-11-10T18:41:23.295Z,8.50
2022-11-10T18:43:51.175Z,8.50
2022-11-10T18:46:18.567Z,8.60
2022-11-10T18:48:46.941Z,8.50
2022-11-10T18:51:15.333Z,8.50
2022-11-10T18:53:42.704Z,8.50
2022-11-10T18:56:10.295Z,8.40
2022-11-10T18:58:37.579Z,8.50
2022-11-10T19:01:10.865Z,8.40
2022-11-10T19:03:38.565Z,8.40
2022-11-10T19:06:06.407Z,8.40
2022-11-10T19:08:33.670Z,8.40
2022-11-10T19:11:01.047Z,8.40
2022-11-10T19:13:28.516Z,8.30
2022-11-10T19:16:00.574Z,8.20
2022-11-10T19:18:31.092Z,8.10
2022-11-10T19:20:58.654Z,8.10
2022-11-10T19:23:26.368Z,8.10
2022-11-10T19:26:06.284Z,8.00
2022-11-10T19:28:33.839Z,8.00
2022-11-10T19:31:09.896Z,7.90
2022-11-10T19:33:38.879Z,7.90
2022-11-10T19:36:11.828Z,7.80
2022-11-10T19:38:39.131Z,7.70
2022-11-10T19:41:28.613Z,7.60
2022-11-10T19:43:57.195Z,7.50
2022-11-10T19:46:28.307Z,7.50
2022-11-10T19:48:58.765Z,7.50
2022-11-10T19:51:26.404Z,7.50
2022-11-10T19:54:02.081Z,7.50
2022-11-10T19:56:32.129Z,7.60
2022-11-10T19:59:00.769Z,7.60
2022-11-10T20:01:28.808Z,7.70
2022-11-10T20:03:56.221Z,7.70
2022-11-10T20:06:23.775Z,7.80
2022-11-10T20:08:51.402Z,7.90
2022-11-10T20:11:21.732Z,7.90
2022-11-10T20:13:54.649Z,7.90
2022-11-10T20:16:22.791Z,8.00
2022-11-10T20:18:50.061Z,8.10
2022-11-10T20:21:23.066Z,8.20
2022-11-10T20:23:57.766Z,8.40
2022-11-10T20:26:25.992Z,8.50
2022-11-10T20:28:53.374Z,8.40
2022-11-10T20:31:24.606Z,8.40
2022-11-10T20:33:55.192Z,8.30
2022-11-10T20:36:27.713Z,8.30
2022-11-10T20:38:56.292Z,8.30
2022-11-10T20:41:26.533Z,8.30
2022-11-10T20:43:57.272Z,8.30
2022-11-10T20:46:53.045Z,8.30
2022-11-10T20:49:12.129Z,8.20
2022-11-10T20:51:40.219Z,8.20
2022-11-10T20:54:07.632Z,8.20
2022-11-10T20:56:34.910Z,8.20
2022-11-10T20:59:02.239Z,8.20
2022-11-10T21:01:30.216Z,8.20
2022-11-10T21:03:57.585Z,8.20
2022-11-10T21:06:24.858Z,8.10
2022-11-10T21:08:53.831Z,8.10
2022-11-10T21:11:40.333Z,8.00
2022-11-10T21:14:07.687Z,7.90
2022-11-10T21:16:35.032Z,7.80
2022-11-10T21:19:02.471Z,7.80
2022-11-10T21:21:34.904Z,7.80
2022-11-10T21:24:06.725Z,7.70
2022-11-10T21:26:34.898Z,7.60
2022-11-10T21:29:03.613Z,7.50
2022-11-10T21:31:31.426Z,7.50
2022-11-10T21:33:59.952Z,7.40
2022-11-10T21:36:29.790Z,7.40
2022-11-10T21:39:01.649Z,7.40
2022-11-10T21:41:29.397Z,7.40
2022-11-10T21:43:56.987Z,7.30
2022-11-10T21:46:24.588Z,7.40
2022-11-10T21:48:52.184Z,7.30
2022-11-10T21:51:22.586Z,7.30
2022-11-10T21:53:49.855Z,7.40
2022-11-10T21:56:17.796Z,7.40
2022-11-10T21:58:45.111Z,7.40
2022-11-10T22:01:19.422Z,7.30
2022-11-10T22:03:47.124Z,7.30
2022-11-10T22:06:16.746Z,7.30
2022-11-10T22:08:45.782Z,7.30
2022-11-10T22:11:34.348Z,7.30
2022-11-10T22:14:20.816Z,7.30
2022-11-10T22:17:08.691Z,7.20
2022-11-10T22:19:37.257Z,7.20
2022-11-10T22:22:04.754Z,7.20
2022-11-10T22:24:34.706Z,7.10
2022-11-10T22:27:04.351Z,7.00
2022-11-10T22:29:33.765Z,7.00
2022-11-10T22:32:02.280Z,6.90
2022-11-10T22:34:30.112Z,6.90
2022-11-10T22:37:00.041Z,6.80
2022-11-10T22:39:46.220Z,6.80
2022-11-10T22:42:32.644Z,6.70
2022-11-10T22:45:00.299Z,6.70
2022-11-10T22:47:47.502Z,6.70
2022-11-10T22:50:14.867Z,6.60
2022-11-10T22:52:42.746Z,6.60
2022-11-10T22:55:10.404Z,6.60
2022-11-10T22:57:37.961Z,6.60
2022-11-10T23:00:05.874Z,6.50
2022-11-10T23:02:33.509Z,6.50
2022-11-10T23:05:00.788Z,6.50
2022-11-10T23:07:29.193Z,6.50
2022-11-10T23:09:58.508Z,6.40
2022-11-10T23:12:26.201Z,6.40
2022-11-10T23:14:54.148Z,6.40
2022-11-10T23:17:21.799Z,6.30
2022-11-10T23:19:49.019Z,6.30
2022-11-10T23:22:16.234Z,6.20
2022-11-10T23:24:43.503Z,6.20
2022-11-10T23:27:10.798Z,6.20
2022-11-10T23:29:38.095Z,6.20
2022-11-10T23:32:05.655Z,6.10
2022-11-10T23:34:32.904Z,6.10
2022-11-10T23:37:00.284Z,6.00
2022-11-10T23:39:27.590Z,6.00
2022-11-10T23:41:54.807Z,6.00
2022-11-10T23:44:22.076Z,6.00
2022-11-10T23:46:49.502Z,5.90
2022-11-10T23:49:17.476Z,5.90
2022-11-10T23:51:44.735Z,5.80
2022-11-10T23:54:12.029Z,5.80
2022-11-10T23:56:39.326Z,5.80
2022-11-10T23:59:06.554Z,5.70
